createdAt,value
2019-05-18T00:00:09.173Z,28.43
2019-05-18T00:02:39.808Z,28.83
2019-05-18T00:05:10.801Z,27.70
2019-05-18T00:07:41.610Z,26.33
2019-05-18T00:10:13.351Z,27.93
2019-05-18T00:12:44.178Z,28.63
2019-05-18T00:15:14.779Z,28.17
2019-05-18T00:17:45.183Z,28.27
2019-05-18T00:20:16.421Z,27.97
2019-05-18T00:22:46.899Z,28.67
2019-05-18T00:25:17.345Z,27.93
2019-05-18T00:27:47.845Z,27.77
2019-05-18T00:30:18.322Z,28.37
2019-05-18T00:32:48.831Z,27.53
2019-05-18T00:35:19.387Z,26.90
2019-05-18T00:37:49.871Z,27.20
2019-05-18T00:40:20.480Z,27.87
2019-05-18T00:42:50.969Z,27.00
2019-05-18T00:45:21.384Z,29.07
2019-05-18T00:47:51.874Z,27.60
2019-05-18T00:50:22.350Z,28.50
2019-05-18T00:52:52.872Z,31.23
2019-05-18T00:55:23.361Z,32.23
2019-05-18T00:57:53.868Z,30.37
2019-05-18T01:00:24.620Z,30.10
2019-05-18T01:02:55.124Z,31.43
2019-05-18T01:05:25.662Z,30.70
2019-05-18T01:07:56.293Z,30.23
2019-05-18T01:10:26.766Z,30.27
2019-05-18T01:12:57.235Z,31.47
2019-05-18T01:15:27.848Z,31.23
2019-05-18T01:18:02.041Z,30.50
2019-05-18T01:20:30.827Z,30.00
2019-05-18T01:23:01.313Z,32.13
2019-05-18T01:25:31.841Z,29.77
2019-05-18T01:28:02.350Z,29.60
2019-05-18T01:30:33.008Z,30.37
2019-05-18T01:33:03.501Z,29.37
2019-05-18T01:35:33.954Z,30.10
2019-05-18T01:38:04.563Z,30.10
2019-05-18T01:40:35.218Z,30.60
2019-05-18T01:43:05.934Z,30.03
2019-05-18T01:45:36.842Z,30.97
2019-05-18T01:48:14.278Z,33.23
2019-05-18T01:50:39.624Z,32.63
2019-05-18T01:53:10.094Z,33.20
2019-05-18T01:55:40.569Z,31.70
2019-05-18T01:58:11.099Z,32.07
2019-05-18T02:00:41.583Z,33.37
2019-05-18T02:03:12.011Z,31.73
2019-05-18T02:05:42.548Z,33.00
2019-05-18T02:08:13.085Z,30.97
2019-05-18T02:10:43.828Z,32.30
2019-05-18T02:13:14.541Z,31.83
2019-05-18T02:15:44.993Z,33.53
2019-05-18T02:18:28.341Z,32.33
2019-05-18T02:20:47.749Z,33.77
2019-05-18T02:23:18.185Z,32.77
2019-05-18T02:25:48.673Z,30.57
2019-05-18T02:28:19.245Z,30.13
2019-05-18T02:30:49.728Z,30.40
2019-05-18T02:33:20.445Z,32.20
2019-05-18T02:35:51.155Z,30.73
2019-05-18T02:38:21.682Z,31.97
2019-05-18T02:40:52.182Z,30.30
2019-05-18T02:43:22.959Z,31.03
2019-05-18T02:45:53.448Z,33.63
2019-05-18T02:48:23.945Z,32.17
2019-05-18T02:50:54.404Z,30.73
2019-05-18T02:53:24.925Z,30.53
2019-05-18T02:55:55.420Z,30.50
2019-05-18T02:58:26.097Z,29.50
2019-05-18T03:00:56.531Z,30.40
2019-05-18T03:03:27.144Z,30.70
2019-05-18T03:05:57.628Z,31.97
2019-05-18T03:08:28.236Z,30.47
2019-05-18T03:10:58.927Z,30.43
2019-05-18T03:13:29.554Z,29.33
2019-05-18T03:15:59.988Z,32.03
2019-05-18T03:18:30.470Z,30.47
2019-05-18T03:21:01.134Z,30.40
2019-05-18T03:23:31.558Z,31.17
2019-05-18T03:26:02.051Z,31.63
2019-05-18T03:28:32.546Z,31.40
2019-05-18T03:31:02.966Z,31.07
2019-05-18T03:33:33.555Z,30.40
2019-05-18T03:36:04.156Z,31.90
2019-05-18T03:38:34.720Z,30.80
2019-05-18T03:41:05.216Z,31.00
2019-05-18T03:43:35.955Z,30.47
2019-05-18T03:46:06.408Z,31.53
2019-05-18T03:48:36.913Z,32.70
2019-05-18T03:51:08.096Z,30.90
2019-05-18T03:53:38.592Z,31.00
2019-05-18T03:56:09.053Z,30.70
2019-05-18T03:58:39.888Z,34.67
2019-05-18T04:01:10.418Z,32.20
2019-05-18T04:03:40.968Z,31.33
2019-05-18T04:06:11.410Z,31.90
2019-05-18T04:08:41.942Z,29.87
2019-05-18T04:11:12.419Z,30.40
2019-05-18T04:13:42.873Z,30.90
2019-05-18T04:16:13.390Z,30.17
2019-05-18T04:18:44.032Z,30.73
2019-05-18T04:21:14.596Z,29.83
2019-05-18T04:23:45.140Z,30.70
2019-05-18T04:26:15.665Z,32.47
2019-05-18T04:28:46.288Z,29.50
2019-05-18T04:31:16.761Z,29.27
2019-05-18T04:33:47.353Z,30.23
2019-05-18T04:36:17.813Z,30.93
2019-05-18T04:38:48.474Z,32.50
2019-05-18T04:41:18.968Z,31.40
2019-05-18T04:43:49.522Z,30.63
2019-05-18T04:46:20.388Z,30.77
2019-05-18T04:48:50.862Z,31.10
2019-05-18T04:51:21.512Z,33.33
2019-05-18T04:53:52.062Z,32.83
2019-05-18T04:56:22.503Z,31.40
2019-05-18T04:58:53.042Z,33.40
2019-05-18T05:01:23.568Z,32.13
2019-05-18T05:03:54.018Z,33.27
2019-05-18T05:06:24.446Z,35.17
2019-05-18T05:08:55.007Z,34.20
2019-05-18T05:11:25.531Z,36.43
2019-05-18T05:13:56.009Z,35.03
2019-05-18T05:16:26.564Z,34.67
2019-05-18T05:18:56.999Z,35.50
2019-05-18T05:21:27.447Z,35.33
2019-05-18T05:23:57.925Z,35.57
2019-05-18T05:26:28.412Z,35.23
2019-05-18T05:28:58.939Z,34.57
2019-05-18T05:31:29.470Z,33.77
2019-05-18T05:33:59.951Z,31.80
2019-05-18T05:36:30.444Z,31.43
2019-05-18T05:39:00.937Z,31.20
2019-05-18T05:41:31.458Z,33.20
2019-05-18T05:44:01.910Z,33.57
2019-05-18T05:46:32.396Z,32.70
2019-05-18T05:49:02.978Z,32.53
2019-05-18T05:51:33.568Z,34.77
2019-05-18T05:54:03.979Z,33.03
2019-05-18T05:56:34.452Z,34.23
2019-05-18T05:59:04.986Z,36.47
2019-05-18T06:01:35.426Z,37.77
2019-05-18T06:04:05.938Z,37.17
2019-05-18T06:06:36.442Z,38.40
2019-05-18T06:09:08.855Z,36.17
2019-05-18T06:11:39.348Z,37.60
2019-05-18T06:14:09.830Z,39.10
2019-05-18T06:16:41.965Z,40.10
2019-05-18T06:19:13.396Z,40.27
2019-05-18T06:21:43.877Z,40.40
2019-05-18T06:24:14.349Z,40.03
2019-05-18T06:26:44.883Z,39.93
2019-05-18T06:29:15.399Z,41.80
2019-05-18T06:31:45.880Z,40.23
2019-05-18T06:34:16.371Z,41.27
2019-05-18T06:36:46.834Z,40.17
2019-05-18T06:39:17.324Z,42.47
2019-05-18T06:41:47.793Z,40.73
2019-05-18T06:44:18.400Z,41.67
2019-05-18T06:46:48.892Z,42.13
2019-05-18T06:49:19.403Z,42.20
2019-05-18T06:51:49.879Z,40.63
2019-05-18T06:54:20.560Z,41.73
2019-05-18T06:56:52.700Z,43.47
2019-05-18T06:59:24.493Z,45.37
2019-05-18T07:01:55.068Z,45.87
2019-05-18T07:04:25.582Z,45.07
2019-05-18T07:06:56.010Z,42.67
2019-05-18T07:09:26.593Z,43.43
2019-05-18T07:11:57.146Z,43.27
2019-05-18T07:14:27.616Z,41.10
2019-05-18T07:16:58.115Z,44.20
2019-05-18T07:19:28.602Z,43.20
2019-05-18T07:21:59.543Z,44.20
2019-05-18T07:24:30.198Z,42.83
2019-05-18T07:27:01.808Z,41.43
2019-05-18T07:29:32.346Z,40.33
2019-05-18T07:32:02.972Z,39.57
2019-05-18T07:34:33.462Z,39.77
2019-05-18T07:37:04.417Z,40.77
2019-05-18T07:39:36.172Z,40.87
2019-05-18T07:42:06.795Z,41.50
2019-05-18T07:44:37.276Z,41.77
2019-05-18T07:47:07.834Z,42.33
2019-05-18T07:49:38.268Z,40.50
2019-05-18T07:52:08.769Z,38.57
2019-05-18T07:54:39.474Z,42.33
2019-05-18T07:57:09.969Z,40.23
2019-05-18T07:59:40.487Z,39.27
2019-05-18T08:02:11.033Z,39.00
2019-05-18T08:04:41.543Z,38.50
2019-05-18T08:07:12.071Z,38.73
2019-05-18T08:09:42.996Z,36.83
2019-05-18T08:12:13.532Z,37.30
2019-05-18T08:14:44.089Z,35.40
2019-05-18T08:17:14.586Z,36.07
2019-05-18T08:19:45.143Z,32.83
2019-05-18T08:22:15.612Z,33.93
2019-05-18T08:24:46.072Z,33.00
2019-05-18T08:27:16.690Z,33.47
2019-05-18T08:29:47.208Z,33.80
2019-05-18T08:32:20.335Z,31.57
2019-05-18T08:34:51.153Z,30.80
2019-05-18T08:37:21.696Z,27.63
2019-05-18T08:39:52.824Z,30.00
2019-05-18T08:42:23.398Z,29.27
2019-05-18T08:44:54.031Z,28.57
2019-05-18T08:47:24.764Z,30.43
2019-05-18T08:49:55.586Z,30.63
2019-05-18T08:52:26.677Z,31.40
2019-05-18T08:54:57.272Z,31.70
2019-05-18T08:57:27.762Z,31.27
2019-05-18T08:59:58.290Z,31.17
2019-05-18T09:02:28.740Z,28.97
2019-05-18T09:04:59.440Z,27.37
2019-05-18T09:07:30.000Z,24.23
2019-05-18T09:10:00.496Z,22.73
2019-05-18T09:12:31.239Z,25.30
2019-05-18T09:15:02.063Z,23.60
2019-05-18T09:17:32.854Z,24.37
2019-05-18T09:20:03.352Z,27.87
2019-05-18T09:22:34.075Z,27.20
2019-05-18T09:25:05.034Z,28.27
2019-05-18T09:27:35.999Z,28.27
2019-05-18T09:30:07.907Z,28.07
2019-05-18T09:32:38.694Z,27.23
2019-05-18T09:35:11.807Z,27.30
2019-05-18T09:37:42.259Z,25.50
2019-05-18T09:40:12.923Z,25.23
2019-05-18T09:42:43.976Z,24.63
2019-05-18T09:45:15.428Z,23.73
2019-05-18T09:47:46.368Z,23.53
2019-05-18T09:50:17.022Z,22.97
2019-05-18T09:52:47.593Z,22.87
2019-05-18T09:55:19.124Z,22.17
2019-05-18T09:57:49.637Z,23.00
2019-05-18T10:00:21.194Z,22.83
2019-05-18T10:02:51.764Z,21.43
2019-05-18T10:05:22.401Z,21.33
2019-05-18T10:07:52.809Z,20.73
2019-05-18T10:10:23.506Z,21.33
2019-05-18T10:12:54.463Z,21.27
2019-05-18T10:15:25.474Z,22.07
2019-05-18T10:17:56.077Z,20.97
2019-05-18T10:20:26.595Z,22.47
2019-05-18T10:23:11.739Z,21.30
2019-05-18T10:25:30.648Z,20.90
2019-05-18T10:28:01.136Z,20.83
2019-05-18T10:30:32.589Z,19.70
2019-05-18T10:33:03.292Z,20.67
2019-05-18T10:35:33.865Z,21.83
2019-05-18T10:38:04.527Z,21.90
2019-05-18T10:40:35.010Z,21.20
2019-05-18T10:43:05.552Z,21.50
2019-05-18T10:45:36.348Z,21.43
2019-05-18T10:48:07.294Z,22.97
2019-05-18T10:50:37.787Z,23.07
2019-05-18T10:53:08.252Z,23.17
2019-05-18T10:55:38.841Z,23.57
2019-05-18T10:58:09.272Z,22.37
2019-05-18T11:00:39.767Z,21.87
2019-05-18T11:03:10.434Z,21.30
2019-05-18T11:05:40.877Z,21.30
2019-05-18T11:08:11.481Z,22.00
2019-05-18T11:10:41.969Z,21.87
2019-05-18T11:13:12.529Z,22.67
2019-05-18T11:15:43.101Z,20.57
2019-05-18T11:18:13.876Z,21.77
2019-05-18T11:20:44.560Z,22.60
2019-05-18T11:23:15.248Z,21.87
2019-05-18T11:25:45.797Z,20.07
2019-05-18T11:28:16.447Z,22.70
2019-05-18T11:30:47.296Z,28.80
2019-05-18T11:33:17.807Z,26.77
2019-05-18T11:35:48.488Z,27.97
2019-05-18T11:38:19.181Z,28.27
2019-05-18T11:40:49.736Z,29.47
2019-05-18T11:43:20.214Z,26.30
2019-05-18T11:45:50.742Z,27.50
2019-05-18T11:48:21.344Z,27.03
2019-05-18T11:50:51.803Z,29.87
2019-05-18T11:53:22.287Z,28.30
2019-05-18T11:55:53.116Z,28.40
2019-05-18T11:58:23.622Z,29.40
2019-05-18T12:00:54.189Z,27.40
2019-05-18T12:03:25.252Z,26.57
2019-05-18T12:05:55.744Z,30.20
2019-05-18T12:08:26.442Z,32.00
2019-05-18T12:10:56.914Z,32.13
2019-05-18T12:13:27.359Z,31.83
2019-05-18T12:15:57.872Z,30.90
2019-05-18T12:18:29.023Z,29.33
2019-05-18T12:20:59.809Z,31.53
2019-05-18T12:23:30.404Z,33.97
2019-05-18T12:26:01.062Z,31.37
2019-05-18T12:28:31.655Z,30.10
2019-05-18T12:31:02.311Z,31.23
2019-05-18T12:33:32.931Z,32.93
2019-05-18T12:36:03.984Z,32.23
2019-05-18T12:38:34.586Z,31.87
2019-05-18T12:41:05.544Z,33.93
2019-05-18T12:43:36.063Z,32.77
2019-05-18T12:46:06.575Z,31.03
2019-05-18T12:48:37.358Z,32.07
2019-05-18T12:51:08.111Z,32.80
2019-05-18T12:53:38.625Z,33.83
2019-05-18T12:56:10.806Z,32.83
2019-05-18T12:58:41.314Z,30.90
2019-05-18T13:01:12.003Z,33.70
2019-05-18T13:03:42.677Z,34.77
2019-05-18T13:06:13.185Z,35.33
2019-05-18T13:08:43.643Z,35.60
2019-05-18T13:11:14.190Z,37.63
2019-05-18T13:13:44.736Z,37.43
2019-05-18T13:16:15.221Z,35.27
2019-05-18T13:18:45.816Z,39.10
2019-05-18T13:21:16.347Z,36.07
2019-05-18T13:23:46.861Z,36.60
2019-05-18T13:26:17.392Z,36.50
2019-05-18T13:28:48.088Z,34.33
2019-05-18T13:31:18.545Z,37.13
2019-05-18T13:33:49.400Z,39.73
2019-05-18T13:36:20.724Z,38.10
2019-05-18T13:38:51.296Z,38.87
2019-05-18T13:41:21.869Z,39.20
2019-05-18T13:43:52.641Z,37.40
2019-05-18T13:46:23.162Z,35.80
2019-05-18T13:48:53.960Z,33.50
2019-05-18T13:51:24.774Z,34.40
2019-05-18T13:53:55.559Z,34.27
2019-05-18T13:56:26.181Z,34.77
2019-05-18T13:58:56.707Z,34.87
2019-05-18T14:01:27.182Z,35.23
2019-05-18T14:03:57.668Z,34.50
2019-05-18T14:06:28.266Z,34.30
2019-05-18T14:08:58.758Z,34.63
2019-05-18T14:11:29.217Z,33.73
2019-05-18T14:13:59.798Z,34.63
2019-05-18T14:16:30.613Z,34.07
2019-05-18T14:19:01.419Z,34.93
2019-05-18T14:21:31.925Z,37.17
2019-05-18T14:24:21.703Z,34.60
2019-05-18T14:26:52.313Z,36.17
2019-05-18T14:29:22.796Z,35.70
2019-05-18T14:31:53.533Z,34.63
2019-05-18T14:34:24.117Z,34.37
2019-05-18T14:36:54.567Z,33.03
2019-05-18T14:39:25.093Z,37.97
2019-05-18T14:41:55.621Z,36.30
2019-05-18T14:44:26.056Z,36.27
2019-05-18T14:46:56.623Z,35.73
2019-05-18T14:49:27.475Z,35.33
2019-05-18T14:51:58.015Z,36.17
2019-05-18T14:54:28.872Z,36.23
2019-05-18T14:56:59.484Z,36.57
2019-05-18T14:59:30.240Z,37.90
2019-05-18T15:02:01.167Z,36.60
2019-05-18T15:04:31.711Z,34.83
2019-05-18T15:07:02.334Z,35.57
2019-05-18T15:09:33.010Z,35.47
2019-05-18T15:12:03.711Z,35.40
2019-05-18T15:14:34.219Z,36.10
2019-05-18T15:17:04.759Z,38.40
2019-05-18T15:19:35.407Z,37.57
2019-05-18T15:22:05.985Z,38.23
2019-05-18T15:24:36.515Z,39.20
2019-05-18T15:27:07.021Z,38.07
2019-05-18T15:29:37.532Z,37.97
2019-05-18T15:32:07.952Z,37.70
2019-05-18T15:34:38.593Z,38.40
2019-05-18T15:37:09.409Z,39.23
2019-05-18T15:39:39.925Z,38.53
2019-05-18T15:42:10.608Z,36.93
2019-05-18T15:44:41.149Z,39.07
2019-05-18T15:47:11.639Z,38.13
2019-05-18T15:49:42.291Z,37.40
2019-05-18T15:52:12.815Z,38.23
2019-05-18T15:54:43.499Z,44.90
2019-05-18T15:57:14.153Z,42.40
2019-05-18T15:59:44.660Z,41.30
2019-05-18T16:02:16.225Z,42.13
2019-05-18T16:04:46.775Z,40.57
2019-05-18T16:07:17.388Z,40.27
2019-05-18T16:09:47.843Z,39.23
2019-05-18T16:12:18.423Z,39.17
2019-05-18T16:14:48.930Z,38.23
2019-05-18T16:17:20.330Z,38.37
2019-05-18T16:19:50.929Z,37.93
2019-05-18T16:22:21.508Z,37.13
2019-05-18T16:24:52.005Z,37.53
2019-05-18T16:27:22.639Z,39.40
2019-05-18T16:29:53.113Z,38.60
2019-05-18T16:32:23.763Z,39.87
2019-05-18T16:34:54.430Z,37.10
2019-05-18T16:37:24.937Z,39.00
2019-05-18T16:39:55.494Z,34.93
2019-05-18T16:42:25.955Z,33.33
2019-05-18T16:44:56.500Z,32.20
2019-05-18T16:47:27.038Z,31.70
2019-05-18T16:49:57.523Z,32.70
2019-05-18T16:52:28.088Z,31.83
2019-05-18T16:54:59.468Z,36.10
2019-05-18T16:57:29.966Z,33.43
2019-05-18T17:00:00.500Z,30.17
2019-05-18T17:02:32.122Z,31.83
2019-05-18T17:05:03.363Z,32.37
2019-05-18T17:07:34.000Z,29.87
2019-05-18T17:10:04.685Z,29.63
2019-05-18T17:12:35.477Z,33.10
2019-05-18T17:15:06.474Z,36.73
2019-05-18T17:17:37.152Z,35.40
2019-05-18T17:20:09.343Z,36.30
2019-05-18T17:22:39.981Z,35.70
2019-05-18T17:25:12.696Z,35.80
2019-05-18T17:27:43.932Z,36.60
2019-05-18T17:30:14.439Z,34.33
2019-05-18T17:32:45.144Z,36.97
2019-05-18T17:35:15.867Z,35.67
2019-05-18T17:37:46.447Z,39.27
2019-05-18T17:40:17.334Z,38.20
2019-05-18T17:42:47.816Z,38.30
2019-05-18T17:45:18.631Z,35.77
2019-05-18T17:47:49.390Z,36.80
2019-05-18T17:50:20.241Z,35.67
2019-05-18T17:52:51.286Z,34.83
2019-05-18T17:55:23.540Z,34.63
2019-05-18T17:57:54.308Z,35.37
2019-05-18T18:00:24.897Z,35.30
2019-05-18T18:02:55.452Z,37.03
2019-05-18T18:05:25.890Z,36.90
2019-05-18T18:07:57.101Z,36.47
2019-05-18T18:10:27.659Z,36.77
2019-05-18T18:12:59.225Z,36.20
2019-05-18T18:15:29.754Z,35.47
2019-05-18T18:18:00.309Z,37.13
2019-05-18T18:20:30.880Z,37.97
2019-05-18T18:23:01.476Z,39.93
2019-05-18T18:25:32.008Z,38.23
2019-05-18T18:28:03.521Z,37.23
2019-05-18T18:30:34.019Z,39.50
2019-05-18T18:33:04.566Z,37.70
2019-05-18T18:35:35.188Z,40.47
2019-05-18T18:38:05.675Z,40.63
2019-05-18T18:40:36.282Z,41.00
2019-05-18T18:43:06.957Z,41.03
2019-05-18T18:45:37.508Z,41.23
2019-05-18T18:48:08.024Z,41.77
2019-05-18T18:50:38.485Z,40.27
2019-05-18T18:53:09.002Z,42.07
2019-05-18T18:55:39.491Z,39.40
2019-05-18T18:58:10.231Z,42.63
2019-05-18T19:00:40.771Z,40.40
2019-05-18T19:03:11.225Z,39.13
2019-05-18T19:05:41.722Z,40.53
2019-05-18T19:08:12.364Z,41.80
2019-05-18T19:10:42.896Z,38.33
2019-05-18T19:13:13.984Z,39.77
2019-05-18T19:15:45.041Z,40.70
2019-05-18T19:18:15.736Z,38.23
2019-05-18T19:20:46.445Z,40.37
2019-05-18T19:23:17.016Z,41.40
2019-05-18T19:25:47.578Z,40.47
2019-05-18T19:28:18.112Z,42.97
2019-05-18T19:30:48.721Z,44.37
2019-05-18T19:33:19.733Z,40.43
2019-05-18T19:35:50.372Z,41.50
2019-05-18T19:38:20.894Z,42.87
2019-05-18T19:40:51.427Z,44.10
2019-05-18T19:43:21.933Z,43.00
2019-05-18T19:45:52.412Z,44.23
2019-05-18T19:48:22.992Z,40.80
2019-05-18T19:50:53.467Z,46.67
2019-05-18T19:53:24.062Z,42.57
2019-05-18T19:55:54.619Z,45.27
2019-05-18T19:58:25.136Z,48.43
2019-05-18T20:00:55.711Z,50.20
2019-05-18T20:03:26.297Z,42.33
2019-05-18T20:05:56.783Z,46.50
2019-05-18T20:08:27.321Z,48.27
2019-05-18T20:10:57.909Z,49.23
2019-05-18T20:13:28.406Z,42.50
2019-05-18T20:15:58.884Z,45.70
2019-05-18T20:18:29.396Z,45.53
2019-05-18T20:20:59.930Z,49.37
2019-05-18T20:23:30.375Z,48.67
2019-05-18T20:26:00.883Z,48.93
2019-05-18T20:28:31.659Z,49.40
2019-05-18T20:31:02.404Z,45.50
2019-05-18T20:33:33.054Z,47.63
2019-05-18T20:36:04.291Z,50.73
2019-05-18T20:38:34.729Z,47.83
2019-05-18T20:41:05.353Z,52.83
2019-05-18T20:43:36.177Z,47.33
2019-05-18T20:46:06.806Z,51.43
2019-05-18T20:48:37.326Z,47.77
2019-05-18T20:51:08.215Z,48.17
2019-05-18T20:53:40.995Z,52.43
2019-05-18T20:56:11.047Z,48.97
2019-05-18T20:58:41.599Z,50.90
2019-05-18T21:01:12.086Z,52.87
2019-05-18T21:03:42.547Z,56.00
2019-05-18T21:06:13.137Z,53.23
2019-05-18T21:08:43.652Z,51.30
2019-05-18T21:11:15.022Z,54.30
2019-05-18T21:13:45.521Z,51.23
2019-05-18T21:16:16.131Z,54.53
2019-05-18T21:18:46.650Z,55.47
2019-05-18T21:21:17.167Z,53.70
2019-05-18T21:23:47.880Z,49.07
2019-05-18T21:26:18.823Z,51.13
2019-05-18T21:28:56.426Z,53.07
2019-05-18T21:31:21.476Z,51.43
2019-05-18T21:33:51.975Z,51.60
2019-05-18T21:36:22.531Z,50.50
2019-05-18T21:38:53.200Z,55.03
2019-05-18T21:41:23.667Z,50.20
2019-05-18T21:43:54.169Z,50.50
2019-05-18T21:46:24.745Z,52.73
2019-05-18T21:48:55.211Z,51.80
2019-05-18T21:51:25.674Z,59.13
2019-05-18T21:53:56.179Z,52.77
2019-05-18T21:56:26.657Z,52.37
2019-05-18T21:59:10.714Z,56.87
2019-05-18T22:01:29.440Z,51.23
2019-05-18T22:03:59.917Z,51.20
2019-05-18T22:06:30.353Z,53.47
2019-05-18T22:09:00.809Z,50.80
2019-05-18T22:11:31.325Z,52.17
2019-05-18T22:14:02.075Z,52.40
2019-05-18T22:16:32.577Z,51.10
2019-05-18T22:19:03.078Z,50.53
2019-05-18T22:21:33.603Z,52.33
2019-05-18T22:24:04.212Z,53.07
2019-05-18T22:26:34.670Z,56.20
2019-05-18T22:29:05.158Z,50.90
2019-05-18T22:31:35.729Z,49.93
2019-05-18T22:34:06.203Z,48.37
2019-05-18T22:36:36.871Z,46.57
2019-05-18T22:39:08.075Z,46.67
2019-05-18T22:41:38.709Z,46.90
2019-05-18T22:44:09.499Z,49.67
2019-05-18T22:46:40.109Z,49.80
2019-05-18T22:49:10.761Z,49.73
2019-05-18T22:51:41.267Z,48.50
2019-05-18T22:54:11.997Z,48.70
2019-05-18T22:56:42.688Z,48.20
2019-05-18T22:59:13.189Z,50.53
2019-05-18T23:01:43.973Z,53.17
2019-05-18T23:04:14.503Z,54.20
2019-05-18T23:06:45.485Z,52.40
2019-05-18T23:09:15.988Z,55.43
2019-05-18T23:11:46.613Z,55.10
2019-05-18T23:14:17.102Z,58.20
2019-05-18T23:16:47.594Z,54.00
2019-05-18T23:19:18.316Z,52.77
2019-05-18T23:21:48.756Z,53.27
2019-05-18T23:24:19.212Z,56.57
2019-05-18T23:26:49.869Z,55.80
2019-05-18T23:29:20.590Z,55.80
2019-05-18T23:31:51.146Z,53.27
2019-05-18T23:34:21.663Z,51.53
2019-05-18T23:36:52.148Z,51.97
2019-05-18T23:39:22.848Z,52.13
2019-05-18T23:41:53.686Z,57.00
2019-05-18T23:44:24.189Z,52.30
2019-05-18T23:46:54.942Z,53.73
2019-05-18T23:49:25.444Z,53.47
2019-05-18T23:51:56.731Z,56.13
2019-05-18T23:54:27.204Z,54.63
2019-05-18T23:56:57.671Z,53.23
2019-05-18T23:59:28.217Z,56.73
